Sayre, Alabama
Current Conditions -  °F | °C
As of 1:53 PM on Tuesday 25 Nov 2014 (Local Time) from KBHM Reporting Station
Broken Clouds Broken Clouds  
Wind Chill: 58°   Ceiling: 15000
Heat Index: 58°   Visibility: 10mi
Dew Point: 27°   Wind: 10mph
Humidity: 31%   Direction: 310°NW
Pressure: 30.09"   Gusts: NA
Location:  33.71°N, 86.97°W
Report Text: KBHM 251953Z 31009KT 10SM BKN150 14/M03 A3009 RMK AO2 SLP188 T01441028
Loading
Personal Weather Stations






























Interactive Weather Map New forecast layout! Learn more

10-Day Weather Forecast

Advertisements
Track Severe Weather on mobile